sensor_id;sensor_type;location;lat;lon;timestamp;P1;durP1;ratioP1;P2;durP2;ratioP2
68319;SDS011;55168;51.120;17.024;2023-01-28T00:00:00;42.7;;;23.5;;
68319;SDS011;55168;51.120;17.024;2023-01-28T00:01:04;32.8;;;19.5;;
68319;SDS011;55168;51.120;17.024;2023-01-28T00:02:00;32.8;;;19.5;;
68319;SDS011;55168;51.120;17.024;2023-01-28T00:03:00;32.8;;;19.5;;
68319;SDS011;55168;51.120;17.024;2023-01-28T00:04:00;32.8;;;19.5;;
68319;SDS011;55168;51.120;17.024;2023-01-28T00:05:00;32.8;;;19.5;;
68319;SDS011;55168;51.120;17.024;2023-01-28T00:06:02;39.4;;;22.2;;
68319;SDS011;55168;51.120;17.024;2023-01-28T00:07:00;39.4;;;22.2;;
68319;SDS011;55168;51.120;17.024;2023-01-28T00:08:00;39.4;;;22.2;;
68319;SDS011;55168;51.120;17.024;2023-01-28T00:09:00;39.4;;;22.2;;
68319;SDS011;55168;51.120;17.024;2023-01-28T00:10:00;39.4;;;22.2;;
68319;SDS011;55168;51.120;17.024;2023-01-28T00:11:01;38.5;;;22.8;;
68319;SDS011;55168;51.120;17.024;2023-01-28T00:12:00;38.5;;;22.8;;
68319;SDS011;55168;51.120;17.024;2023-01-28T00:13:00;38.5;;;22.8;;
68319;SDS011;55168;51.120;17.024;2023-01-28T00:14:00;38.5;;;22.8;;
68319;SDS011;55168;51.120;17.024;2023-01-28T00:15:00;38.5;;;22.8;;
68319;SDS011;55168;51.120;17.024;2023-01-28T00:16:05;36.6;;;21.3;;
68319;SDS011;55168;51.120;17.024;2023-01-28T00:17:00;36.6;;;21.3;;
68319;SDS011;55168;51.120;17.024;2023-01-28T00:18:00;36.6;;;21.3;;
68319;SDS011;55168;51.120;17.024;2023-01-28T00:19:00;36.6;;;21.3;;
68319;SDS011;55168;51.120;17.024;2023-01-28T00:20:00;36.6;;;21.3;;
68319;SDS011;55168;51.120;17.024;2023-01-28T00:21:05;40.4;;;22.7;;
68319;SDS011;55168;51.120;17.024;2023-01-28T00:22:00;40.4;;;22.7;;
68319;SDS011;55168;51.120;17.024;2023-01-28T00:23:00;40.4;;;22.7;;
68319;SDS011;55168;51.120;17.024;2023-01-28T00:24:00;40.4;;;22.7;;
68319;SDS011;55168;51.120;17.024;2023-01-28T00:25:00;40.4;;;22.7;;
68319;SDS011;55168;51.120;17.024;2023-01-28T00:26:02;40.9;;;22.5;;
68319;SDS011;55168;51.120;17.024;2023-01-28T00:27:00;40.9;;;22.5;;
68319;SDS011;55168;51.120;17.024;2023-01-28T00:28:00;40.9;;;22.5;;
68319;SDS011;55168;51.120;17.024;2023-01-28T00:29:00;40.9;;;22.5;;
68319;SDS011;55168;51.120;17.024;2023-01-28T00:30:00;40.9;;;22.5;;
68319;SDS011;55168;51.120;17.024;2023-01-28T00:31:11;41.4;;;23.4;;
68319;SDS011;55168;51.120;17.024;2023-01-28T00:32:00;41.4;;;23.4;;
68319;SDS011;55168;51.120;17.024;2023-01-28T00:33:00;41.4;;;23.4;;
68319;SDS011;55168;51.120;17.024;2023-01-28T00:34:00;41.4;;;23.4;;
68319;SDS011;55168;51.120;17.024;2023-01-28T00:35:00;41.4;;;23.4;;
68319;SDS011;55168;51.120;17.024;2023-01-28T00:36:01;37.5;;;23.0;;
68319;SDS011;55168;51.120;17.024;2023-01-28T00:37:00;37.5;;;23.0;;
68319;SDS011;55168;51.120;17.024;2023-01-28T00:38:00;37.5;;;23.0;;
68319;SDS011;55168;51.120;17.024;2023-01-28T00:39:00;37.5;;;23.0;;
68319;SDS011;55168;51.120;17.024;2023-01-28T00:40:00;37.5;;;23.0;;
68319;SDS011;55168;51.120;17.024;2023-01-28T00:41:11;43.9;;;23.7;;
68319;SDS011;55168;51.120;17.024;2023-01-28T00:42:00;43.9;;;23.7;;
68319;SDS011;55168;51.120;17.024;2023-01-28T00:43:00;43.9;;;23.7;;
68319;SDS011;55168;51.120;17.024;2023-01-28T00:44:00;43.9;;;23.7;;
68319;SDS011;55168;51.120;17.024;2023-01-28T00:45:00;43.9;;;23.7;;
68319;SDS011;55168;51.120;17.024;2023-01-28T00:46:00;41.4;;;24.2;;
68319;SDS011;55168;51.120;17.024;2023-01-28T00:47:00;41.4;;;24.2;;
68319;SDS011;55168;51.120;17.024;2023-01-28T00:48:00;41.4;;;24.2;;
68319;SDS011;55168;51.120;17.024;2023-01-28T00:49:00;41.4;;;24.2;;
68319;SDS011;55168;51.120;17.024;2023-01-28T00:50:00;41.4;;;24.2;;
68319;SDS011;55168;51.120;17.024;2023-01-28T00:51:00;42.3;;;23.1;;
68319;SDS011;55168;51.120;17.024;2023-01-28T00:52:00;42.3;;;23.1;;
68319;SDS011;55168;51.120;17.024;2023-01-28T00:53:00;42.3;;;23.1;;
68319;SDS011;55168;51.120;17.024;2023-01-28T00:54:00;42.3;;;23.1;;
68319;SDS011;55168;51.120;17.024;2023-01-28T00:55:00;42.3;;;23.1;;
68319;SDS011;55168;51.120;17.024;2023-01-28T00:56:00;37.7;;;21.9;;
68319;SDS011;55168;51.120;17.024;2023-01-28T00:57:00;37.7;;;21.9;;
68319;SDS011;55168;51.120;17.024;2023-01-28T00:58:00;37.7;;;21.9;;
68319;SDS011;55168;51.120;17.024;2023-01-28T00:59:00;37.7;;;21.9;;
68319;SDS011;55168;51.120;17.024;2023-01-28T01:00:00;37.7;;;21.9;;
68319;SDS011;55168;51.120;17.024;2023-01-28T01:01:11;41.7;;;22.6;;
68319;SDS011;55168;51.120;17.024;2023-01-28T01:02:00;41.7;;;22.6;;
68319;SDS011;55168;51.120;17.024;2023-01-28T01:03:03;41.7;;;22.6;;
68319;SDS011;55168;51.120;17.024;2023-01-28T01:04:00;41.7;;;22.6;;
68319;SDS011;55168;51.120;17.024;2023-01-28T01:05:00;41.7;;;22.6;;
68319;SDS011;55168;51.120;17.024;2023-01-28T01:06:00;39.1;;;22.8;;
68319;SDS011;55168;51.120;17.024;2023-01-28T01:07:00;39.1;;;22.8;;
68319;SDS011;55168;51.120;17.024;2023-01-28T01:08:00;39.1;;;22.8;;
68319;SDS011;55168;51.120;17.024;2023-01-28T01:09:00;39.1;;;22.8;;
68319;SDS011;55168;51.120;17.024;2023-01-28T01:10:00;39.1;;;22.8;;
68319;SDS011;55168;51.120;17.024;2023-01-28T01:11:01;42.4;;;24.7;;
68319;SDS011;55168;51.120;17.024;2023-01-28T01:12:00;42.4;;;24.7;;
68319;SDS011;55168;51.120;17.024;2023-01-28T01:13:00;42.4;;;24.7;;
68319;SDS011;55168;51.120;17.024;2023-01-28T01:14:00;42.4;;;24.7;;
68319;SDS011;55168;51.120;17.024;2023-01-28T01:15:00;42.4;;;24.7;;
68319;SDS011;55168;51.120;17.024;2023-01-28T01:16:01;39.8;;;23.8;;
68319;SDS011;55168;51.120;17.024;2023-01-28T01:17:00;39.8;;;23.8;;
68319;SDS011;55168;51.120;17.024;2023-01-28T01:18:00;39.8;;;23.8;;
68319;SDS011;55168;51.120;17.024;2023-01-28T01:19:00;39.8;;;23.8;;
68319;SDS011;55168;51.120;17.024;2023-01-28T01:20:00;39.8;;;23.8;;
68319;SDS011;55168;51.120;17.024;2023-01-28T01:21:00;38.4;;;22.0;;
68319;SDS011;55168;51.120;17.024;2023-01-28T01:22:00;38.4;;;22.0;;
68319;SDS011;55168;51.120;17.024;2023-01-28T01:23:00;38.4;;;22.0;;
68319;SDS011;55168;51.120;17.024;2023-01-28T01:24:00;38.4;;;22.0;;
68319;SDS011;55168;51.120;17.024;2023-01-28T01:25:00;38.4;;;22.0;;
68319;SDS011;55168;51.120;17.024;2023-01-28T01:26:00;33.7;;;20.5;;
68319;SDS011;55168;51.120;17.024;2023-01-28T01:27:00;33.7;;;20.5;;
68319;SDS011;55168;51.120;17.024;2023-01-28T01:28:00;33.7;;;20.5;;
68319;SDS011;55168;51.120;17.024;2023-01-28T01:29:00;33.7;;;20.5;;
68319;SDS011;55168;51.120;17.024;2023-01-28T01:30:00;33.7;;;20.5;;
68319;SDS011;55168;51.120;17.024;2023-01-28T01:31:02;35.8;;;23.2;;
68319;SDS011;55168;51.120;17.024;2023-01-28T01:32:00;35.8;;;23.2;;
68319;SDS011;55168;51.120;17.024;2023-01-28T01:33:00;35.8;;;23.2;;
68319;SDS011;55168;51.120;17.024;2023-01-28T01:34:00;35.8;;;23.2;;
68319;SDS011;55168;51.120;17.024;2023-01-28T01:35:00;35.8;;;23.2;;
68319;SDS011;55168;51.120;17.024;2023-01-28T01:36:00;36.5;;;23.0;;
68319;SDS011;55168;51.120;17.024;2023-01-28T01:37:00;36.5;;;23.0;;
68319;SDS011;55168;51.120;17.024;2023-01-28T01:38:00;36.5;;;23.0;;
68319;SDS011;55168;51.120;17.024;2023-01-28T01:39:00;36.5;;;23.0;;
68319;SDS011;55168;51.120;17.024;2023-01-28T01:40:00;36.5;;;23.0;;
68319;SDS011;55168;51.120;17.024;2023-01-28T01:41:00;38.9;;;23.1;;
68319;SDS011;55168;51.120;17.024;2023-01-28T01:42:00;38.9;;;23.1;;
68319;SDS011;55168;51.120;17.024;2023-01-28T01:43:00;38.9;;;23.1;;
68319;SDS011;55168;51.120;17.024;2023-01-28T01:44:03;38.9;;;23.1;;
68319;SDS011;55168;51.120;17.024;2023-01-28T01:45:03;38.9;;;23.1;;
68319;SDS011;55168;51.120;17.024;2023-01-28T01:46:00;32.5;;;22.4;;
68319;SDS011;55168;51.120;17.024;2023-01-28T01:47:00;32.5;;;22.4;;
68319;SDS011;55168;51.120;17.024;2023-01-28T01:48:05;32.5;;;22.4;;
68319;SDS011;55168;51.120;17.024;2023-01-28T01:49:06;32.5;;;22.4;;
68319;SDS011;55168;51.120;17.024;2023-01-28T01:50:05;35.4;;;23.5;;
68319;SDS011;55168;51.120;17.024;2023-01-28T01:51:03;35.4;;;23.5;;
68319;SDS011;55168;51.120;17.024;2023-01-28T01:52:06;35.4;;;23.5;;
68319;SDS011;55168;51.120;17.024;2023-01-28T01:53:03;35.4;;;23.5;;
68319;SDS011;55168;51.120;17.024;2023-01-28T01:54:00;35.4;;;23.5;;
68319;SDS011;55168;51.120;17.024;2023-01-28T01:55:03;36.0;;;23.0;;
68319;SDS011;55168;51.120;17.024;2023-01-28T01:56:03;36.0;;;23.0;;
68319;SDS011;55168;51.120;17.024;2023-01-28T01:57:01;36.0;;;23.0;;
68319;SDS011;55168;51.120;17.024;2023-01-28T01:58:07;36.0;;;23.0;;
68319;SDS011;55168;51.120;17.024;2023-01-28T01:59:00;36.0;;;23.0;;
68319;SDS011;55168;51.120;17.024;2023-01-28T02:00:02;37.8;;;23.4;;
68319;SDS011;55168;51.120;17.024;2023-01-28T02:01:01;37.8;;;23.4;;
68319;SDS011;55168;51.120;17.024;2023-01-28T02:02:02;37.8;;;23.4;;
68319;SDS011;55168;51.120;17.024;2023-01-28T02:03:00;37.8;;;23.4;;
68319;SDS011;55168;51.120;17.024;2023-01-28T02:04:08;37.8;;;23.4;;
68319;SDS011;55168;51.120;17.024;2023-01-28T02:05:00;33.6;;;21.8;;
68319;SDS011;55168;51.120;17.024;2023-01-28T02:06:00;33.6;;;21.8;;
68319;SDS011;55168;51.120;17.024;2023-01-28T02:07:00;33.6;;;21.8;;
68319;SDS011;55168;51.120;17.024;2023-01-28T02:08:00;33.6;;;21.8;;
68319;SDS011;55168;51.120;17.024;2023-01-28T02:09:00;33.6;;;21.8;;
68319;SDS011;55168;51.120;17.024;2023-01-28T02:10:00;40.8;;;24.4;;
68319;SDS011;55168;51.120;17.024;2023-01-28T02:11:04;40.8;;;24.4;;
68319;SDS011;55168;51.120;17.024;2023-01-28T02:12:04;40.8;;;24.4;;
68319;SDS011;55168;51.120;17.024;2023-01-28T02:13:00;40.8;;;24.4;;
68319;SDS011;55168;51.120;17.024;2023-01-28T02:14:02;40.8;;;24.4;;
68319;SDS011;55168;51.120;17.024;2023-01-28T02:15:03;38.6;;;23.8;;
68319;SDS011;55168;51.120;17.024;2023-01-28T02:16:01;38.6;;;23.8;;
68319;SDS011;55168;51.120;17.024;2023-01-28T02:17:00;38.6;;;23.8;;
68319;SDS011;55168;51.120;17.024;2023-01-28T02:18:00;38.6;;;23.8;;
68319;SDS011;55168;51.120;17.024;2023-01-28T02:19:00;38.6;;;23.8;;
68319;SDS011;55168;51.120;17.024;2023-01-28T02:20:03;35.1;;;22.7;;
68319;SDS011;55168;51.120;17.024;2023-01-28T02:21:17;35.1;;;22.7;;
68319;SDS011;55168;51.120;17.024;2023-01-28T02:23:11;35.1;;;22.7;;
68319;SDS011;55168;51.120;17.024;2023-01-28T02:24:12;35.1;;;22.7;;
68319;SDS011;55168;51.120;17.024;2023-01-28T02:25:16;34.8;;;20.8;;
68319;SDS011;55168;51.120;17.024;2023-01-28T02:27:15;34.8;;;20.8;;
68319;SDS011;55168;51.120;17.024;2023-01-28T02:29:09;34.8;;;20.8;;
68319;SDS011;55168;51.120;17.024;2023-01-28T02:30:20;35.4;;;22.9;;
68319;SDS011;55168;51.120;17.024;2023-01-28T02:31:14;35.4;;;22.9;;
68319;SDS011;55168;51.120;17.024;2023-01-28T02:32:08;35.4;;;22.9;;
68319;SDS011;55168;51.120;17.024;2023-01-28T02:33:04;35.4;;;22.9;;
68319;SDS011;55168;51.120;17.024;2023-01-28T02:35:06;33.1;;;21.9;;
68319;SDS011;55168;51.120;17.024;2023-01-28T02:36:08;33.1;;;21.9;;
68319;SDS011;55168;51.120;17.024;2023-01-28T02:37:07;33.1;;;21.9;;
68319;SDS011;55168;51.120;17.024;2023-01-28T02:38:11;33.1;;;21.9;;
68319;SDS011;55168;51.120;17.024;2023-01-28T02:39:03;33.1;;;21.9;;
68319;SDS011;55168;51.120;17.024;2023-01-28T02:40:05;34.1;;;21.8;;
68319;SDS011;55168;51.120;17.024;2023-01-28T02:41:04;34.1;;;21.8;;
68319;SDS011;55168;51.120;17.024;2023-01-28T02:42:04;34.1;;;21.8;;
68319;SDS011;55168;51.120;17.024;2023-01-28T02:43:00;34.1;;;21.8;;
68319;SDS011;55168;51.120;17.024;2023-01-28T02:44:01;34.1;;;21.8;;
68319;SDS011;55168;51.120;17.024;2023-01-28T02:45:00;35.1;;;22.2;;
68319;SDS011;55168;51.120;17.024;2023-01-28T02:46:09;35.1;;;22.2;;
68319;SDS011;55168;51.120;17.024;2023-01-28T02:47:00;35.1;;;22.2;;
68319;SDS011;55168;51.120;17.024;2023-01-28T02:48:00;35.1;;;22.2;;
68319;SDS011;55168;51.120;17.024;2023-01-28T02:49:01;35.1;;;22.2;;
68319;SDS011;55168;51.120;17.024;2023-01-28T02:50:04;36.8;;;22.9;;
68319;SDS011;55168;51.120;17.024;2023-01-28T02:51:06;36.8;;;22.9;;
68319;SDS011;55168;51.120;17.024;2023-01-28T02:52:18;36.8;;;22.9;;
68319;SDS011;55168;51.120;17.024;2023-01-28T02:53:09;36.8;;;22.9;;
68319;SDS011;55168;51.120;17.024;2023-01-28T02:54:10;36.8;;;22.9;;
68319;SDS011;55168;51.120;17.024;2023-01-28T02:55:08;36.1;;;23.9;;
68319;SDS011;55168;51.120;17.024;2023-01-28T02:56:10;36.1;;;23.9;;
68319;SDS011;55168;51.120;17.024;2023-01-28T02:57:17;36.1;;;23.9;;
68319;SDS011;55168;51.120;17.024;2023-01-28T02:58:07;36.1;;;23.9;;
68319;SDS011;55168;51.120;17.024;2023-01-28T02:59:08;36.1;;;23.9;;
68319;SDS011;55168;51.120;17.024;2023-01-28T03:01:07;36.6;;;23.6;;
68319;SDS011;55168;51.120;17.024;2023-01-28T03:02:09;36.6;;;23.6;;
68319;SDS011;55168;51.120;17.024;2023-01-28T03:03:14;36.6;;;23.6;;
68319;SDS011;55168;51.120;17.024;2023-01-28T03:04:06;36.6;;;23.6;;
68319;SDS011;55168;51.120;17.024;2023-01-28T03:05:07;35.3;;;22.2;;
68319;SDS011;55168;51.120;17.024;2023-01-28T03:06:06;35.3;;;22.2;;
68319;SDS011;55168;51.120;17.024;2023-01-28T03:07:02;35.3;;;22.2;;
68319;SDS011;55168;51.120;17.024;2023-01-28T03:08:03;35.3;;;22.2;;
68319;SDS011;55168;51.120;17.024;2023-01-28T03:09:05;35.3;;;22.2;;
68319;SDS011;55168;51.120;17.024;2023-01-28T03:10:03;37.3;;;24.3;;
68319;SDS011;55168;51.120;17.024;2023-01-28T03:11:00;37.3;;;24.3;;
68319;SDS011;55168;51.120;17.024;2023-01-28T03:12:02;37.3;;;24.3;;
68319;SDS011;55168;51.120;17.024;2023-01-28T03:13:00;37.3;;;24.3;;
68319;SDS011;55168;51.120;17.024;2023-01-28T03:14:00;37.3;;;24.3;;
68319;SDS011;55168;51.120;17.024;2023-01-28T03:15:04;36.3;;;24.1;;
68319;SDS011;55168;51.120;17.024;2023-01-28T03:16:00;36.3;;;24.1;;
68319;SDS011;55168;51.120;17.024;2023-01-28T03:17:01;36.3;;;24.1;;
68319;SDS011;55168;51.120;17.024;2023-01-28T03:18:02;36.3;;;24.1;;
68319;SDS011;55168;51.120;17.024;2023-01-28T03:19:01;36.3;;;24.1;;
68319;SDS011;55168;51.120;17.024;2023-01-28T03:20:00;40.3;;;24.7;;
68319;SDS011;55168;51.120;17.024;2023-01-28T03:21:07;40.3;;;24.7;;
68319;SDS011;55168;51.120;17.024;2023-01-28T03:22:00;40.3;;;24.7;;
68319;SDS011;55168;51.120;17.024;2023-01-28T03:23:04;40.3;;;24.7;;
68319;SDS011;55168;51.120;17.024;2023-01-28T03:24:06;40.3;;;24.7;;
68319;SDS011;55168;51.120;17.024;2023-01-28T03:25:01;38.0;;;24.2;;
68319;SDS011;55168;51.120;17.024;2023-01-28T03:26:02;38.0;;;24.2;;
68319;SDS011;55168;51.120;17.024;2023-01-28T03:27:05;38.0;;;24.2;;
68319;SDS011;55168;51.120;17.024;2023-01-28T03:28:02;38.0;;;24.2;;
68319;SDS011;55168;51.120;17.024;2023-01-28T03:29:05;38.0;;;24.2;;
68319;SDS011;55168;51.120;17.024;2023-01-28T03:30:05;38.3;;;25.3;;
68319;SDS011;55168;51.120;17.024;2023-01-28T03:31:04;38.3;;;25.3;;
68319;SDS011;55168;51.120;17.024;2023-01-28T03:32:00;38.3;;;25.3;;
68319;SDS011;55168;51.120;17.024;2023-01-28T03:33:00;38.3;;;25.3;;
68319;SDS011;55168;51.120;17.024;2023-01-28T03:34:01;38.3;;;25.3;;
68319;SDS011;55168;51.120;17.024;2023-01-28T03:35:00;40.2;;;24.5;;
68319;SDS011;55168;51.120;17.024;2023-01-28T03:36:01;40.2;;;24.5;;
68319;SDS011;55168;51.120;17.024;2023-01-28T03:37:00;40.2;;;24.5;;
68319;SDS011;55168;51.120;17.024;2023-01-28T03:38:00;40.2;;;24.5;;
68319;SDS011;55168;51.120;17.024;2023-01-28T03:39:00;40.2;;;24.5;;
68319;SDS011;55168;51.120;17.024;2023-01-28T03:40:02;38.5;;;24.1;;
68319;SDS011;55168;51.120;17.024;2023-01-28T03:41:02;38.5;;;24.1;;
68319;SDS011;55168;51.120;17.024;2023-01-28T03:42:04;38.5;;;24.1;;
68319;SDS011;55168;51.120;17.024;2023-01-28T03:43:00;38.5;;;24.1;;
68319;SDS011;55168;51.120;17.024;2023-01-28T03:44:00;38.5;;;24.1;;
68319;SDS011;55168;51.120;17.024;2023-01-28T03:45:00;40.4;;;24.4;;
68319;SDS011;55168;51.120;17.024;2023-01-28T03:46:00;40.4;;;24.4;;
68319;SDS011;55168;51.120;17.024;2023-01-28T03:47:00;40.4;;;24.4;;
68319;SDS011;55168;51.120;17.024;2023-01-28T03:48:00;40.4;;;24.4;;
68319;SDS011;55168;51.120;17.024;2023-01-28T03:49:00;40.4;;;24.4;;
68319;SDS011;55168;51.120;17.024;2023-01-28T03:50:00;41.0;;;24.0;;
68319;SDS011;55168;51.120;17.024;2023-01-28T03:51:00;41.0;;;24.0;;
68319;SDS011;55168;51.120;17.024;2023-01-28T03:52:00;41.0;;;24.0;;
68319;SDS011;55168;51.120;17.024;2023-01-28T03:53:00;41.0;;;24.0;;
68319;SDS011;55168;51.120;17.024;2023-01-28T03:54:00;41.0;;;24.0;;
68319;SDS011;55168;51.120;17.024;2023-01-28T03:55:00;40.4;;;25.1;;
68319;SDS011;55168;51.120;17.024;2023-01-28T03:56:00;40.4;;;25.1;;
68319;SDS011;55168;51.120;17.024;2023-01-28T03:57:00;40.4;;;25.1;;
68319;SDS011;55168;51.120;17.024;2023-01-28T03:58:00;40.4;;;25.1;;
68319;SDS011;55168;51.120;17.024;2023-01-28T03:59:00;40.4;;;25.1;;
68319;SDS011;55168;51.120;17.024;2023-01-28T04:00:00;39.1;;;24.7;;
68319;SDS011;55168;51.120;17.024;2023-01-28T04:01:00;39.1;;;24.7;;
68319;SDS011;55168;51.120;17.024;2023-01-28T04:02:00;39.1;;;24.7;;
68319;SDS011;55168;51.120;17.024;2023-01-28T04:03:00;39.1;;;24.7;;
68319;SDS011;55168;51.120;17.024;2023-01-28T04:04:00;39.1;;;24.7;;
68319;SDS011;55168;51.120;17.024;2023-01-28T04:05:00;41.0;;;25.2;;
68319;SDS011;55168;51.120;17.024;2023-01-28T04:06:03;41.0;;;25.2;;
68319;SDS011;55168;51.120;17.024;2023-01-28T04:07:00;41.0;;;25.2;;
68319;SDS011;55168;51.120;17.024;2023-01-28T04:08:00;41.0;;;25.2;;
68319;SDS011;55168;51.120;17.024;2023-01-28T04:09:00;41.0;;;25.2;;
68319;SDS011;55168;51.120;17.024;2023-01-28T04:10:00;39.7;;;25.6;;
68319;SDS011;55168;51.120;17.024;2023-01-28T04:11:00;39.7;;;25.6;;
68319;SDS011;55168;51.120;17.024;2023-01-28T04:12:00;39.7;;;25.6;;
68319;SDS011;55168;51.120;17.024;2023-01-28T04:13:00;39.7;;;25.6;;
68319;SDS011;55168;51.120;17.024;2023-01-28T04:14:00;39.7;;;25.6;;
68319;SDS011;55168;51.120;17.024;2023-01-28T04:15:00;44.5;;;25.3;;
68319;SDS011;55168;51.120;17.024;2023-01-28T04:16:00;44.5;;;25.3;;
68319;SDS011;55168;51.120;17.024;2023-01-28T04:17:00;44.5;;;25.3;;
68319;SDS011;55168;51.120;17.024;2023-01-28T04:18:00;44.5;;;25.3;;
68319;SDS011;55168;51.120;17.024;2023-01-28T04:19:00;44.5;;;25.3;;
68319;SDS011;55168;51.120;17.024;2023-01-28T04:20:00;39.5;;;24.9;;
68319;SDS011;55168;51.120;17.024;2023-01-28T04:21:00;39.5;;;24.9;;
68319;SDS011;55168;51.120;17.024;2023-01-28T04:22:00;39.5;;;24.9;;
68319;SDS011;55168;51.120;17.024;2023-01-28T04:23:00;39.5;;;24.9;;
68319;SDS011;55168;51.120;17.024;2023-01-28T04:24:00;39.5;;;24.9;;
68319;SDS011;55168;51.120;17.024;2023-01-28T04:25:00;40.2;;;25.1;;
68319;SDS011;55168;51.120;17.024;2023-01-28T04:26:00;40.2;;;25.1;;
68319;SDS011;55168;51.120;17.024;2023-01-28T04:27:00;40.2;;;25.1;;
68319;SDS011;55168;51.120;17.024;2023-01-28T04:28:00;40.2;;;25.1;;
68319;SDS011;55168;51.120;17.024;2023-01-28T04:29:00;40.2;;;25.1;;
68319;SDS011;55168;51.120;17.024;2023-01-28T04:30:00;37.4;;;22.9;;
68319;SDS011;55168;51.120;17.024;2023-01-28T04:31:00;37.4;;;22.9;;
68319;SDS011;55168;51.120;17.024;2023-01-28T04:32:00;37.4;;;22.9;;
68319;SDS011;55168;51.120;17.024;2023-01-28T04:33:00;37.4;;;22.9;;
68319;SDS011;55168;51.120;17.024;2023-01-28T04:34:00;37.4;;;22.9;;
68319;SDS011;55168;51.120;17.024;2023-01-28T04:35:00;35.5;;;23.0;;
68319;SDS011;55168;51.120;17.024;2023-01-28T04:36:00;35.5;;;23.0;;
68319;SDS011;55168;51.120;17.024;2023-01-28T04:37:00;35.5;;;23.0;;
68319;SDS011;55168;51.120;17.024;2023-01-28T04:38:00;35.5;;;23.0;;
68319;SDS011;55168;51.120;17.024;2023-01-28T04:39:00;35.5;;;23.0;;
68319;SDS011;55168;51.120;17.024;2023-01-28T04:40:00;39.6;;;23.6;;
68319;SDS011;55168;51.120;17.024;2023-01-28T04:41:00;39.6;;;23.6;;
68319;SDS011;55168;51.120;17.024;2023-01-28T04:42:00;39.6;;;23.6;;
68319;SDS011;55168;51.120;17.024;2023-01-28T04:43:00;39.6;;;23.6;;
68319;SDS011;55168;51.120;17.024;2023-01-28T04:44:00;39.6;;;23.6;;
68319;SDS011;55168;51.120;17.024;2023-01-28T04:45:00;39.0;;;23.9;;
68319;SDS011;55168;51.120;17.024;2023-01-28T04:46:00;39.0;;;23.9;;
68319;SDS011;55168;51.120;17.024;2023-01-28T04:47:00;39.0;;;23.9;;
68319;SDS011;55168;51.120;17.024;2023-01-28T04:48:00;39.0;;;23.9;;
68319;SDS011;55168;51.120;17.024;2023-01-28T04:49:00;39.0;;;23.9;;
68319;SDS011;55168;51.120;17.024;2023-01-28T04:50:00;42.7;;;25.4;;
68319;SDS011;55168;51.120;17.024;2023-01-28T04:51:00;42.7;;;25.4;;
68319;SDS011;55168;51.120;17.024;2023-01-28T04:52:00;42.7;;;25.4;;
68319;SDS011;55168;51.120;17.024;2023-01-28T04:53:00;42.7;;;25.4;;
68319;SDS011;55168;51.120;17.024;2023-01-28T04:54:00;42.7;;;25.4;;
68319;SDS011;55168;51.120;17.024;2023-01-28T04:55:00;38.9;;;26.7;;
68319;SDS011;55168;51.120;17.024;2023-01-28T04:56:00;38.9;;;26.7;;
68319;SDS011;55168;51.120;17.024;2023-01-28T04:57:00;38.9;;;26.7;;
68319;SDS011;55168;51.120;17.024;2023-01-28T04:58:00;38.9;;;26.7;;
68319;SDS011;55168;51.120;17.024;2023-01-28T04:59:00;38.9;;;26.7;;
68319;SDS011;55168;51.120;17.024;2023-01-28T05:00:00;41.9;;;27.4;;
68319;SDS011;55168;51.120;17.024;2023-01-28T05:01:00;41.9;;;27.4;;
68319;SDS011;55168;51.120;17.024;2023-01-28T05:02:00;41.9;;;27.4;;
68319;SDS011;55168;51.120;17.024;2023-01-28T05:03:00;41.9;;;27.4;;
68319;SDS011;55168;51.120;17.024;2023-01-28T05:04:00;41.9;;;27.4;;
68319;SDS011;55168;51.120;17.024;2023-01-28T05:05:00;40.8;;;27.2;;
68319;SDS011;55168;51.120;17.024;2023-01-28T05:06:00;40.8;;;27.2;;
68319;SDS011;55168;51.120;17.024;2023-01-28T05:07:00;40.8;;;27.2;;
68319;SDS011;55168;51.120;17.024;2023-01-28T05:08:00;40.8;;;27.2;;
68319;SDS011;55168;51.120;17.024;2023-01-28T05:09:00;40.8;;;27.2;;
68319;SDS011;55168;51.120;17.024;2023-01-28T05:10:00;41.3;;;26.5;;
68319;SDS011;55168;51.120;17.024;2023-01-28T05:11:00;41.3;;;26.5;;
68319;SDS011;55168;51.120;17.024;2023-01-28T05:12:00;41.3;;;26.5;;
68319;SDS011;55168;51.120;17.024;2023-01-28T05:13:00;41.3;;;26.5;;
68319;SDS011;55168;51.120;17.024;2023-01-28T05:14:00;41.3;;;26.5;;
68319;SDS011;55168;51.120;17.024;2023-01-28T05:15:00;41.9;;;26.0;;
68319;SDS011;55168;51.120;17.024;2023-01-28T05:16:00;41.9;;;26.0;;
68319;SDS011;55168;51.120;17.024;2023-01-28T05:17:00;41.9;;;26.0;;
68319;SDS011;55168;51.120;17.024;2023-01-28T05:18:00;41.9;;;26.0;;
68319;SDS011;55168;51.120;17.024;2023-01-28T05:19:00;41.9;;;26.0;;
68319;SDS011;55168;51.120;17.024;2023-01-28T05:20:00;41.4;;;25.7;;
68319;SDS011;55168;51.120;17.024;2023-01-28T05:21:00;41.4;;;25.7;;
68319;SDS011;55168;51.120;17.024;2023-01-28T05:22:00;41.4;;;25.7;;
68319;SDS011;55168;51.120;17.024;2023-01-28T05:23:00;41.4;;;25.7;;
68319;SDS011;55168;51.120;17.024;2023-01-28T05:24:00;41.4;;;25.7;;
68319;SDS011;55168;51.120;17.024;2023-01-28T05:25:00;42.0;;;27.0;;
68319;SDS011;55168;51.120;17.024;2023-01-28T05:26:00;42.0;;;27.0;;
68319;SDS011;55168;51.120;17.024;2023-01-28T05:27:00;42.0;;;27.0;;
68319;SDS011;55168;51.120;17.024;2023-01-28T05:28:00;42.0;;;27.0;;
68319;SDS011;55168;51.120;17.024;2023-01-28T05:29:00;42.0;;;27.0;;
68319;SDS011;55168;51.120;17.024;2023-01-28T05:30:00;41.0;;;25.8;;
68319;SDS011;55168;51.120;17.024;2023-01-28T05:31:05;41.0;;;25.8;;
68319;SDS011;55168;51.120;17.024;2023-01-28T05:32:00;41.0;;;25.8;;
68319;SDS011;55168;51.120;17.024;2023-01-28T05:33:00;41.0;;;25.8;;
68319;SDS011;55168;51.120;17.024;2023-01-28T05:34:00;41.0;;;25.8;;
68319;SDS011;55168;51.120;17.024;2023-01-28T05:35:00;42.7;;;27.3;;
68319;SDS011;55168;51.120;17.024;2023-01-28T05:36:00;42.7;;;27.3;;
68319;SDS011;55168;51.120;17.024;2023-01-28T05:37:00;42.7;;;27.3;;
68319;SDS011;55168;51.120;17.024;2023-01-28T05:38:00;42.7;;;27.3;;
68319;SDS011;55168;51.120;17.024;2023-01-28T05:39:00;42.7;;;27.3;;
68319;SDS011;55168;51.120;17.024;2023-01-28T05:40:00;40.2;;;26.5;;
68319;SDS011;55168;51.120;17.024;2023-01-28T05:41:00;40.2;;;26.5;;
68319;SDS011;55168;51.120;17.024;2023-01-28T05:42:00;40.2;;;26.5;;
68319;SDS011;55168;51.120;17.024;2023-01-28T05:43:00;40.2;;;26.5;;
68319;SDS011;55168;51.120;17.024;2023-01-28T05:44:00;40.2;;;26.5;;
68319;SDS011;55168;51.120;17.024;2023-01-28T05:45:00;42.4;;;27.3;;
68319;SDS011;55168;51.120;17.024;2023-01-28T05:46:00;42.4;;;27.3;;
68319;SDS011;55168;51.120;17.024;2023-01-28T05:47:00;42.4;;;27.3;;
68319;SDS011;55168;51.120;17.024;2023-01-28T05:48:00;42.4;;;27.3;;
68319;SDS011;55168;51.120;17.024;2023-01-28T05:49:00;42.4;;;27.3;;
68319;SDS011;55168;51.120;17.024;2023-01-28T05:50:00;39.9;;;25.3;;
68319;SDS011;55168;51.120;17.024;2023-01-28T05:51:00;39.9;;;25.3;;
68319;SDS011;55168;51.120;17.024;2023-01-28T05:52:00;39.9;;;25.3;;
68319;SDS011;55168;51.120;17.024;2023-01-28T05:53:00;39.9;;;25.3;;
68319;SDS011;55168;51.120;17.024;2023-01-28T05:54:00;39.9;;;25.3;;
68319;SDS011;55168;51.120;17.024;2023-01-28T05:55:00;40.9;;;26.0;;
68319;SDS011;55168;51.120;17.024;2023-01-28T05:56:00;40.9;;;26.0;;
68319;SDS011;55168;51.120;17.024;2023-01-28T05:57:00;40.9;;;26.0;;
68319;SDS011;55168;51.120;17.024;2023-01-28T05:58:00;40.9;;;26.0;;
68319;SDS011;55168;51.120;17.024;2023-01-28T05:59:00;40.9;;;26.0;;
68319;SDS011;55168;51.120;17.024;2023-01-28T06:00:00;40.5;;;25.8;;